ETAD

Spangdahlem Air Base Airport

Trier, Germany
METAR ETAD 151910Z AUTO 00000KT 9999 BKN002 OVC006 01/01 A2947 RMK AO2 CIG 002V004 SLPNO TSNO $
Observed Flight Rules
Dec-15 @ 19:10 UTC (37 minutes ago) Instrument Flight Rules
Wind Visibility Clouds
Calm 10,000+ meters
  • Broken at 200' AGL
  • Overcast at 600' AGL
Temperatures Readings
Current 1°C / 34°F
Dewpoint 1°C / 34°F
Humidity 100%
Altimeter 29.47" Hg
Pressure 998 hPa
Elevation 365
METAR ETAD 151910Z AUTO 00000KT 9999 BKN002 OVC006 01/01 A2947 RMK AO2 CIG 002V004 SLPNO TSNO $
Observed Flight Rules
Dec-15 @ 19:10 UTC
(37 minutes ago)
LIFR
Wind Visibility
Calm 10,000+ meters
Clouds
  • Broken at 200' AGL
  • Overcast at 600' AGL
Temperature Dewpoint
1°C / 34°F 1°C / 34°F
Humidity Altimeter Pressure
100% 29.47" Hg 998 hPa